Time;durP1;ratioP1;P1;durP2;ratioP2;P2;SDS_P1;SDS_P2;PMS_P1;PMS_P2;Temp;Humidity;BMP_temperature;BMP_pressure;BME280_temperature;BME280_humidity;BME280_pressure;Samples;Min_cycle;Max_cycle;Signal;HPM_P1;HPM_P2
2023/03/12 00:01:58;;;;;;;;;20.75;18.00;;;;;4.01;62.16;101082.19;5043011;28;11567;-68
2023/03/12 00:04:25;;;;;;;;;14.75;14.75;;;;;3.99;62.77;101078.84;5040542;28;11591;-68
2023/03/12 00:06:53;;;;;;;;;17.00;17.00;;;;;4.02;62.24;101082.06;5043794;28;12233;-68
2023/03/12 00:09:19;;;;;;;;;16.75;16.50;;;;;4.02;61.81;101086.56;5039280;28;11559;-67
2023/03/12 00:11:45;;;;;;;;;16.00;15.25;;;;;4.04;61.38;101084.56;5039417;28;11571;-68
2023/03/12 00:14:12;;;;;;;;;15.50;14.50;;;;;4.05;61.22;101088.91;5037962;28;11559;-67
2023/03/12 00:16:39;;;;;;;;;14.75;14.75;;;;;4.07;61.22;101085.13;5041533;28;11718;-66
2023/03/12 00:19:05;;;;;;;;;17.25;14.75;;;;;4.06;60.61;101078.13;5038617;28;11557;-69
2023/03/12 00:21:32;;;;;;;;;14.75;14.25;;;;;4.06;60.48;101078.13;5035898;28;11571;-69
2023/03/12 00:23:58;;;;;;;;;17.00;15.00;;;;;4.05;60.46;101070.25;5039460;28;11549;-68
2023/03/12 00:26:25;;;;;;;;;16.25;15.25;;;;;4.02;60.26;101071.41;5036953;28;11679;-65
2023/03/12 00:28:51;;;;;;;;;23.00;17.25;;;;;4.01;60.11;101066.22;5040868;28;11589;-67
2023/03/12 00:31:26;;;;;;;;;20.25;17.00;;;;;4.01;60.30;101068.88;5041151;28;11583;-68
2023/03/12 00:33:54;;;;;;;;;20.75;17.50;;;;;4.01;60.11;101066.22;5038856;28;12306;-67
2023/03/12 00:36:25;;;;;;;;;21.00;15.00;;;;;4.03;60.28;101066.91;5037326;28;11539;-67
2023/03/12 00:38:52;;;;;;;;;17.50;14.00;;;;;3.97;59.84;101058.53;5037947;28;12268;-67
2023/03/12 00:41:21;;;;;;;;;12.50;11.50;;;;;3.97;59.66;101047.03;5024328;28;11705;-67
2023/03/12 00:43:49;;;;;;;;;12.25;12.25;;;;;3.96;59.72;101046.19;5040354;28;11672;-68
2023/03/12 00:46:16;;;;;;;;;17.75;15.75;;;;;3.96;59.73;101038.19;5043221;28;11550;-68
2023/03/12 00:48:43;;;;;;;;;15.75;14.25;;;;;3.88;59.41;101032.75;5039033;28;11756;-68
2023/03/12 00:51:10;;;;;;;;;13.50;13.50;;;;;3.89;60.00;101034.47;5040116;28;11562;-68
2023/03/12 00:53:37;;;;;;;;;22.50;20.75;;;;;3.84;59.28;101030.53;5035908;28;11562;-68
2023/03/12 00:56:04;;;;;;;;;19.50;18.75;;;;;3.84;59.80;101033.19;5040080;28;12341;-68
2023/03/12 00:58:31;;;;;;;;;13.25;13.25;;;;;3.82;59.28;101029.84;5039078;28;12279;-68
2023/03/12 01:00:58;;;;;;;;;22.00;13.75;;;;;3.80;59.10;101035.31;5037059;28;11589;-66
2023/03/12 01:03:25;;;;;;;;;14.25;14.25;;;;;3.84;59.13;101038.53;5037431;28;11582;-68
2023/03/12 01:05:54;;;;;;;;;14.75;13.50;;;;;3.90;59.22;101040.63;5040563;28;11583;-66
2023/03/12 01:08:22;;;;;;;;;17.50;13.50;;;;;3.94;59.24;101036.69;5054483;28;11595;-68
2023/03/12 01:10:48;;;;;;;;;12.25;11.00;;;;;3.95;59.58;101038.34;5042945;28;11662;-67
2023/03/12 01:13:16;;;;;;;;;13.25;11.00;;;;;3.94;59.45;101028.69;5045597;28;11550;-68
2023/03/12 01:15:42;;;;;;;;;13.25;12.00;;;;;3.95;59.29;101033.03;5044600;28;11556;-67
2023/03/12 01:18:09;;;;;;;;;13.75;13.75;;;;;3.99;59.46;101036.25;5044940;28;11549;-68
2023/03/12 01:20:35;;;;;;;;;17.50;11.50;;;;;4.01;59.39;101034.25;5044274;28;12250;-68
2023/03/12 01:23:02;;;;;;;;;11.25;11.25;;;;;4.01;59.23;101034.25;5043142;28;11637;-68
2023/03/12 01:25:29;;;;;;;;;14.00;11.00;;;;;3.99;59.68;101033.56;5045475;28;11549;-68
2023/03/12 01:27:55;;;;;;;;;13.75;11.75;;;;;3.97;59.68;101023.91;5050636;28;11507;-68
2023/03/12 01:30:22;;;;;;;;;11.75;11.25;;;;;3.97;59.98;101026.56;5048795;28;11555;-69
2023/03/12 01:32:50;;;;;;;;;13.75;12.75;;;;;4.00;59.62;101028.09;5035096;28;11550;-67
2023/03/12 01:35:17;;;;;;;;;15.50;14.00;;;;;3.94;59.43;101026.03;5047669;28;11554;-68
2023/03/12 01:37:44;;;;;;;;;16.50;13.00;;;;;3.90;59.37;101022.81;5048560;28;11551;-68
2023/03/12 01:40:16;;;;;;;;;11.00;10.75;;;;;3.93;59.86;101014.53;5049926;28;11573;-68
2023/03/12 01:42:43;;;;;;;;;11.25;10.25;;;;;3.94;59.53;101013.53;5043589;28;11624;-68
2023/03/12 01:45:47;;;;;;;;;15.00;12.00;;;;;3.94;60.17;101008.22;5048167;28;11521;-66
2023/03/12 01:48:17;;;;;;;;;16.25;14.75;;;;;3.94;59.68;101002.06;5040536;28;12421;-66
2023/03/12 01:50:44;;;;;;;;;14.00;14.00;;;;;3.97;60.09;101001.78;5060612;28;11979;-67
2023/03/12 01:53:11;;;;;;;;;14.75;13.25;;;;;3.94;60.22;101000.22;5041981;28;11525;-68
2023/03/12 01:55:38;;;;;;;;;14.75;14.75;;;;;3.90;59.84;100998.84;5040144;28;11548;-68
2023/03/12 01:58:06;;;;;;;;;15.00;14.25;;;;;3.89;60.15;100989.19;5042054;28;11559;-67
2023/03/12 02:00:33;;;;;;;;;12.75;11.25;;;;;3.93;60.14;100992.41;5042184;28;11539;-68
2023/03/12 02:03:05;;;;;;;;;12.25;10.00;;;;;3.96;60.49;100992.09;5041036;28;11708;-66
2023/03/12 02:05:47;;;;;;;;;11.00;11.00;;;;;3.96;60.28;100990.25;5046222;28;11715;-68
2023/03/12 02:08:16;;;;;;;;;10.75;10.75;;;;;3.96;59.95;100987.59;5035238;28;12396;-66
2023/03/12 02:10:43;;;;;;;;;10.25;10.25;;;;;3.97;60.30;100989.28;5045707;28;11540;-68
2023/03/12 02:13:10;;;;;;;;;9.75;9.75;;;;;4.01;60.46;100995.16;5045294;28;11643;-69
2023/03/12 02:15:42;;;;;;;;;11.25;11.00;;;;;4.04;60.68;100988.69;5037120;28;11537;-67
2023/03/12 02:18:12;;;;;;;;;13.25;11.00;;;;;4.03;60.48;100981.69;5046896;28;11639;-66
2023/03/12 02:20:49;;;;;;;;;19.50;17.25;;;;;3.95;60.64;100972.59;5049746;28;11548;-68
2023/03/12 02:23:25;;;;;;;;;15.00;15.00;;;;;3.87;60.34;100955.69;5043802;28;11678;-68
2023/03/12 02:25:54;;;;;;;;;14.25;13.50;;;;;3.81;60.93;100956.25;5045033;28;11557;-68
2023/03/12 02:28:25;;;;;;;;;17.00;13.75;;;;;3.86;60.97;100957.53;5039563;28;11571;-68
2023/03/12 02:30:57;;;;;;;;;19.75;15.25;;;;;3.88;61.33;100936.06;5039461;28;11669;-67
2023/03/12 02:33:23;;;;;;;;;15.25;15.25;;;;;3.92;61.23;100937.44;5046141;28;11576;-68
2023/03/12 02:35:51;;;;;;;;;16.00;13.75;;;;;3.92;61.23;100932.94;5047686;28;11540;-68
2023/03/12 02:38:39;;;;;;;;;11.75;11.25;;;;;3.96;61.39;100926.34;5044509;28;11578;-68
2023/03/12 02:41:27;;;;;;;;;9.75;9.75;;;;;4.01;61.64;100933.91;5037074;28;11566;-68
2023/03/12 02:44:03;;;;;;;;;12.50;11.50;;;;;4.01;61.51;100922.38;5044938;28;11532;-68
2023/03/12 02:46:39;;;;;;;;;14.00;12.50;;;;;4.01;61.71;100912.59;5039420;28;11553;-67
2023/03/12 02:49:05;;;;;;;;;10.00;9.75;;;;;3.97;62.12;100905.88;5024863;28;12264;-68
2023/03/12 02:51:32;;;;;;;;;14.75;14.00;;;;;3.95;61.52;100900.69;5042782;28;11559;-68
2023/03/12 02:53:58;;;;;;;;;16.25;13.25;;;;;3.93;61.55;100899.19;5042379;28;11547;-68
2023/03/12 02:56:27;;;;;;;;;12.25;12.00;;;;;3.88;61.50;100899.59;5041788;28;11556;-67
2023/03/12 02:58:53;;;;;;;;;11.25;8.00;;;;;3.91;61.32;100891.31;5046023;28;12405;-68
2023/03/12 03:01:22;;;;;;;;;8.00;7.00;;;;;3.94;61.14;100891.03;5044637;28;11542;-67
2023/03/12 03:03:49;;;;;;;;;12.00;12.00;;;;;3.96;61.28;100894.38;5042320;28;11590;-68
2023/03/12 03:06:16;;;;;;;;;11.50;11.25;;;;;3.94;61.62;100882.22;5042474;28;11634;-68
2023/03/12 03:08:43;;;;;;;;;10.75;10.00;;;;;3.91;61.93;100874.50;5053233;28;11697;-69
2023/03/12 03:11:10;;;;;;;;;11.00;10.25;;;;;3.88;62.00;100859.66;5040481;28;11543;-66
2023/03/12 03:13:36;;;;;;;;;13.75;12.25;;;;;3.89;61.67;100852.50;5064569;28;11516;-68
2023/03/12 03:16:04;;;;;;;;;14.00;13.50;;;;;3.80;62.09;100854.25;5044053;28;11542;-66
2023/03/12 03:18:31;;;;;;;;;7.50;6.25;;;;;3.81;61.83;100845.31;5037942;28;11577;-68
2023/03/12 03:21:02;;;;;;;;;18.00;14.75;;;;;3.79;61.69;100855.25;5047270;28;12237;-67
2023/03/12 03:23:30;;;;;;;;;10.50;10.50;;;;;3.82;62.10;100854.13;5036947;28;11617;-67
2023/03/12 03:25:58;;;;;;;;;10.25;10.25;;;;;3.82;62.12;100838.97;5044914;28;11669;-68
2023/03/12 03:28:25;;;;;;;;;13.25;10.00;;;;;3.81;61.66;100839.13;5047078;28;11600;-67
2023/03/12 03:30:54;;;;;;;;;10.25;9.50;;;;;3.81;61.97;100825.81;5046245;28;11577;-67
2023/03/12 03:33:21;;;;;;;;;7.75;7.50;;;;;3.78;62.16;100829.63;5035049;28;11534;-67
2023/03/12 03:35:48;;;;;;;;;10.75;8.50;;;;;3.85;61.89;100829.84;5040213;28;11574;-68
2023/03/12 03:38:15;;;;;;;;;13.25;11.00;;;;;3.81;62.04;100826.66;5042611;28;11558;-68
2023/03/12 03:40:42;;;;;;;;;8.50;7.50;;;;;3.80;62.19;100811.66;5044449;28;11575;-68
2023/03/12 03:43:09;;;;;;;;;12.00;12.00;;;;;3.75;62.06;100813.94;5038530;28;11500;-68
2023/03/12 03:45:35;;;;;;;;;16.50;13.00;;;;;3.73;61.52;100826.56;5026962;28;11566;-68
2023/03/12 03:48:02;;;;;;;;;10.25;8.25;;;;;3.72;62.19;100824.88;5041950;28;11589;-68
2023/03/12 03:50:33;;;;;;;;;14.75;11.00;;;;;3.69;62.28;100814.56;5041371;28;11516;-67
2023/03/12 03:52:59;;;;;;;;;11.50;10.25;;;;;3.75;62.43;100802.47;5042032;28;12241;-68
2023/03/12 03:55:26;;;;;;;;;13.25;10.50;;;;;3.77;62.38;100801.31;5050154;28;11529;-67
2023/03/12 03:57:52;;;;;;;;;13.75;10.75;;;;;3.75;62.18;100808.63;5043874;28;11541;-68
2023/03/12 04:00:19;;;;;;;;;9.50;7.75;;;;;3.76;62.43;100806.78;5040490;28;11548;-66
2023/03/12 04:02:47;;;;;;;;;11.75;10.50;;;;;3.70;61.98;100809.06;5038191;28;12266;-68
2023/03/12 04:05:18;;;;;;;;;7.00;7.00;;;;;3.67;62.36;100800.53;5044304;28;12504;-66
2023/03/12 04:07:45;;;;;;;;;12.25;8.00;;;;;3.76;62.23;100804.97;5059986;28;11526;-67
2023/03/12 04:10:13;;;;;;;;;11.00;11.00;;;;;3.68;62.45;100808.38;5043396;28;11537;-66
2023/03/12 04:12:41;;;;;;;;;11.50;10.75;;;;;3.72;62.52;100812.41;5047803;28;12191;-68
2023/03/12 04:15:07;;;;;;;;;14.00;10.50;;;;;3.66;62.61;100805.03;5018602;28;11593;-67
2023/03/12 04:17:34;;;;;;;;;12.25;10.50;;;;;3.58;62.97;100806.78;5043811;28;11562;-68
2023/03/12 04:20:01;;;;;;;;;15.25;11.00;;;;;3.56;63.53;100800.75;5042889;28;11637;-68
2023/03/12 04:22:28;;;;;;;;;8.25;8.25;;;;;3.54;63.38;100800.91;5052841;28;11516;-68
2023/03/12 04:24:55;;;;;;;;;10.50;10.50;;;;;3.56;64.19;100793.59;5043382;28;11607;-68
2023/03/12 04:27:22;;;;;;;;;12.50;11.00;;;;;3.61;64.87;100782.53;5058262;28;11531;-68
2023/03/12 04:29:48;;;;;;;;;13.00;10.50;;;;;3.64;64.90;100784.88;5041615;28;11667;-67
2023/03/12 04:32:15;;;;;;;;;12.50;11.50;;;;;3.60;65.51;100784.31;5041893;28;11525;-68
2023/03/12 04:34:42;;;;;;;;;8.00;7.75;;;;;3.58;66.02;100786.31;5057980;28;12316;-66
2023/03/12 04:37:12;;;;;;;;;12.50;10.00;;;;;3.55;67.02;100773.31;5037603;28;11513;-68
2023/03/12 04:39:40;;;;;;;;;7.75;7.75;;;;;3.57;67.48;100762.53;5038192;28;11526;-67
2023/03/12 04:42:07;;;;;;;;;7.00;7.00;;;;;3.60;67.89;100751.56;5048815;28;11551;-68
2023/03/12 04:44:33;;;;;;;;;8.00;7.50;;;;;3.58;67.52;100742.91;5039499;28;11499;-67
2023/03/12 04:47:00;;;;;;;;;4.75;4.75;;;;;3.55;68.86;100729.88;5045873;28;11577;-68
2023/03/12 04:49:27;;;;;;;;;11.00;8.00;;;;;3.52;69.51;100732.84;5043471;28;11588;-68
2023/03/12 04:51:54;;;;;;;;;10.75;6.25;;;;;3.53;70.04;100734.53;5040341;28;11524;-66
2023/03/12 04:54:21;;;;;;;;;9.50;8.00;;;;;3.52;70.10;100732.84;5049188;28;11513;-68
2023/03/12 04:56:49;;;;;;;;;7.00;5.00;;;;;3.49;70.72;100733.16;5043792;28;11514;-67
2023/03/12 04:59:17;;;;;;;;;12.00;8.00;;;;;3.49;70.84;100717.19;5035671;28;12283;-68
2023/03/12 05:01:45;;;;;;;;;8.00;7.25;;;;;3.41;71.03;100707.31;5041479;28;11612;-67
2023/03/12 05:04:19;;;;;;;;;7.50;6.00;;;;;3.40;71.61;100705.63;5041758;28;11607;-68
2023/03/12 05:06:46;;;;;;;;;8.00;8.00;;;;;3.40;71.12;100698.50;5047018;28;11537;-68
2023/03/12 05:09:12;;;;;;;;;11.50;10.00;;;;;3.41;71.66;100700.16;5023664;28;11502;-67
2023/03/12 05:11:39;;;;;;;;;10.75;9.50;;;;;3.40;72.04;100700.28;5039066;28;11533;-67
2023/03/12 05:14:11;;;;;;;;;8.00;8.00;;;;;3.47;72.13;100704.88;5044484;28;11534;-66
2023/03/12 05:16:38;;;;;;;;;7.25;7.25;;;;;3.47;72.09;100704.88;5042114;28;11546;-67
2023/03/12 05:19:04;;;;;;;;;8.00;6.50;;;;;3.52;72.25;100707.06;5033221;28;11530;-67
2023/03/12 05:21:32;;;;;;;;;10.50;8.50;;;;;3.51;72.59;100707.22;5049147;28;11483;-66
2023/03/12 05:23:59;;;;;;;;;9.00;5.00;;;;;3.56;72.37;100694.28;5048086;28;11525;-66
2023/03/12 05:26:32;;;;;;;;;9.50;8.50;;;;;3.56;72.50;100678.31;5047596;28;11524;-67
2023/03/12 05:29:06;;;;;;;;;8.50;8.50;;;;;3.49;72.71;100680.78;5044989;28;11538;-67
2023/03/12 05:31:34;;;;;;;;;7.00;5.50;;;;;3.53;72.88;100678.66;5047795;28;11512;-67
2023/03/12 05:34:03;;;;;;;;;12.50;7.00;;;;;3.52;72.95;100676.97;5047832;28;11604;-67
2023/03/12 05:36:32;;;;;;;;;6.50;6.50;;;;;3.56;73.03;100681.00;5052636;28;11674;-67
2023/03/12 05:38:58;;;;;;;;;9.00;8.75;;;;;3.55;72.58;100688.13;5065209;23;11553;-68
2023/03/12 05:41:29;;;;;;;;;8.00;8.00;;;;;3.47;72.88;100688.06;5059425;28;11540;-68
2023/03/12 05:44:01;;;;;;;;;8.50;8.50;;;;;3.48;73.14;100684.41;5042255;28;11516;-66
2023/03/12 05:46:28;;;;;;;;;11.00;8.50;;;;;3.53;73.18;100683.97;5063816;28;11497;-68
2023/03/12 05:48:56;;;;;;;;;10.00;10.00;;;;;3.54;73.23;100680.31;5076008;28;11542;-70
2023/03/12 05:51:23;;;;;;;;;10.00;10.00;;;;;3.55;73.21;100679.31;5051825;28;11524;-69
2023/03/12 05:53:50;;;;;;;;;11.00;11.00;;;;;3.52;73.69;100677.78;5053783;28;11572;-68
2023/03/12 05:56:17;;;;;;;;;17.00;15.50;;;;;3.45;73.56;100682.06;5050780;28;11514;-67
2023/03/12 05:58:43;;;;;;;;;13.50;12.50;;;;;3.39;73.65;100683.50;5049229;28;11574;-67
2023/03/12 06:01:14;;;;;;;;;15.50;13.00;;;;;3.44;74.13;100677.72;5045960;28;11584;-67
2023/03/12 06:03:41;;;;;;;;;21.00;13.25;;;;;3.40;73.69;100685.19;5056232;28;12257;-67
2023/03/12 06:06:09;;;;;;;;;17.75;16.50;;;;;3.40;74.66;100677.22;5059511;28;11522;-67
2023/03/12 06:08:35;;;;;;;;;16.50;14.00;;;;;3.41;74.47;100665.56;5047679;28;11543;-68
2023/03/12 06:11:02;;;;;;;;;16.25;16.25;;;;;3.40;74.85;100671.03;5045825;28;11549;-68
2023/03/12 06:13:29;;;;;;;;;14.00;11.00;;;;;3.40;75.08;100674.56;5049969;28;11599;-67
2023/03/12 06:16:05;;;;;;;;;13.25;13.25;;;;;3.42;75.24;100679.72;5046429;28;11565;-67
2023/03/12 06:18:34;;;;;;;;;18.00;17.25;;;;;3.46;75.39;100691.72;5046788;28;11561;-68
2023/03/12 06:21:12;;;;;;;;;16.00;11.75;;;;;3.51;75.64;100686.78;5045393;28;11547;-68
2023/03/12 06:23:38;;;;;;;;;17.00;12.25;;;;;3.50;75.84;100682.44;5048419;28;11656;-69
2023/03/12 06:26:08;;;;;;;;;15.00;15.00;;;;;3.44;75.93;100664.41;5034560;28;11546;-67
2023/03/12 06:28:35;;;;;;;;;14.00;14.00;;;;;3.43;76.68;100660.91;5045831;28;11578;-69
2023/03/12 06:31:02;;;;;;;;;15.50;14.50;;;;;3.37;77.27;100642.91;5042695;28;11543;-68
2023/03/12 06:33:29;;;;;;;;;11.50;11.50;;;;;3.37;77.63;100632.28;5054378;28;11543;-68
2023/03/12 06:35:57;;;;;;;;;20.75;20.50;;;;;3.32;78.18;100655.84;5047515;28;12350;-67
2023/03/12 06:38:25;;;;;;;;;13.50;13.50;;;;;3.38;78.11;100652.56;5036404;28;11571;-68
2023/03/12 06:40:58;;;;;;;;;17.50;14.00;;;;;3.39;78.30;100653.41;5045595;28;12306;-69
2023/03/12 06:43:27;;;;;;;;;16.00;14.50;;;;;3.38;78.91;100641.91;5051608;28;11600;-68
2023/03/12 06:45:55;;;;;;;;;16.75;16.75;;;;;3.38;78.89;100633.09;5051250;28;11545;-68
2023/03/12 06:48:23;;;;;;;;;14.75;14.00;;;;;3.36;79.14;100635.06;5037691;28;11570;-68
2023/03/12 06:50:50;;;;;;;;;17.75;16.00;;;;;3.36;79.94;100635.06;5049683;28;11519;-69
2023/03/12 06:53:18;;;;;;;;;20.50;18.75;;;;;3.30;79.73;100623.22;5050488;28;11613;-69
2023/03/12 06:55:45;;;;;;;;;24.50;17.25;;;;;3.30;80.06;100619.72;5049856;28;11551;-68
2023/03/12 06:58:12;;;;;;;;;23.00;17.25;;;;;3.33;80.25;100617.59;5051542;28;11591;-69
2023/03/12 07:00:38;;;;;;;;;20.50;18.25;;;;;3.40;80.65;100612.50;5038544;28;11583;-69
2023/03/12 07:03:05;;;;;;;;;22.00;20.00;;;;;3.26;80.75;100610.38;5045113;28;11637;-68
2023/03/12 07:05:32;;;;;;;;;14.25;14.25;;;;;3.30;81.42;100603.78;5040493;28;11564;-66
2023/03/12 07:07:58;;;;;;;;;17.00;16.75;;;;;3.32;81.01;100604.44;5049610;28;12318;-67
2023/03/12 07:10:28;;;;;;;;;20.75;19.25;;;;;3.41;81.81;100614.19;5041143;28;12408;-65
2023/03/12 07:12:55;;;;;;;;;15.00;15.00;;;;;3.48;81.05;100625.88;5038211;28;11566;-66
2023/03/12 07:15:22;;;;;;;;;17.00;15.75;;;;;3.49;81.19;100624.06;5038402;28;11680;-68
2023/03/12 07:17:49;;;;;;;;;12.25;12.25;;;;;3.47;81.07;100622.38;5046798;28;11557;-66
2023/03/12 07:20:16;;;;;;;;;29.50;24.25;;;;;3.44;81.33;100619.19;5050430;28;11593;-68
2023/03/12 07:22:42;;;;;;;;;19.75;18.25;;;;;3.47;81.49;100633.00;5047509;28;12268;-65
2023/03/12 07:25:10;;;;;;;;;17.00;17.00;;;;;3.51;81.42;100638.03;5032776;28;11667;-67
2023/03/12 07:27:36;;;;;;;;;17.25;17.00;;;;;3.51;81.46;100646.84;5039795;28;11554;-65
2023/03/12 07:30:03;;;;;;;;;22.75;20.75;;;;;3.52;81.88;100645.84;5045468;28;11622;-66
2023/03/12 07:32:32;;;;;;;;;17.00;17.00;;;;;3.46;81.42;100643.81;5045782;28;11704;-65
2023/03/12 07:34:58;;;;;;;;;17.50;16.25;;;;;3.51;81.88;100652.19;5049010;28;11578;-67
2023/03/12 07:37:25;;;;;;;;;17.00;16.25;;;;;3.56;82.11;100654.38;5043260;28;11559;-66
2023/03/12 07:39:53;;;;;;;;;17.25;17.25;;;;;3.51;81.81;100646.03;5046452;28;11693;-64
2023/03/12 07:42:20;;;;;;;;;15.50;12.50;;;;;3.60;82.20;100647.75;5042113;28;11585;-64
2023/03/12 07:44:47;;;;;;;;;68.00;52.50;;;;;3.58;82.13;100637.28;5050183;28;11667;-66
2023/03/12 07:47:13;;;;;;;;;23.25;22.50;;;;;3.63;82.50;100642.97;5041145;28;11609;-66
2023/03/12 07:49:49;;;;;;;;;18.25;17.25;;;;;3.71;82.76;100642.19;5046693;28;11553;-66
2023/03/12 07:52:17;;;;;;;;;18.75;17.00;;;;;3.69;81.82;100634.38;5045886;28;11539;-66
2023/03/12 07:54:43;;;;;;;;;17.25;17.00;;;;;3.72;82.30;100626.06;5037081;28;11553;-66
2023/03/12 07:57:11;;;;;;;;;18.00;15.00;;;;;3.76;82.32;100639.06;5042834;28;11558;-65
2023/03/12 07:59:37;;;;;;;;;15.00;15.00;;;;;3.79;82.28;100631.59;5049791;28;11514;-66
2023/03/12 08:02:04;;;;;;;;;17.25;15.50;;;;;3.83;82.40;100632.97;5050677;28;11677;-66
2023/03/12 08:04:30;;;;;;;;;20.75;20.75;;;;;3.89;82.77;100637.69;5048225;28;11616;-66
2023/03/12 08:06:57;;;;;;;;;20.75;17.75;;;;;3.93;82.75;100638.22;5049567;28;11517;-65
2023/03/12 08:09:24;;;;;;;;;18.00;16.00;;;;;3.91;82.40;100633.03;5038432;28;11557;-67
2023/03/12 08:11:50;;;;;;;;;26.00;22.50;;;;;3.92;82.24;100628.53;5048988;28;11975;-66
2023/03/12 08:14:17;;;;;;;;;24.25;21.50;;;;;3.91;82.44;100630.34;5042525;28;11629;-66
2023/03/12 08:16:43;;;;;;;;;21.50;20.25;;;;;3.93;83.10;100630.22;5048891;28;11645;-65
2023/03/12 08:19:10;;;;;;;;;24.75;23.75;;;;;3.92;83.29;100625.88;5048952;28;11885;-67
2023/03/12 08:21:36;;;;;;;;;56.00;43.75;;;;;3.94;84.00;100638.03;5049954;28;11580;-66
2023/03/12 08:24:03;;;;;;;;;20.00;19.50;;;;;4.01;84.33;100645.41;5043229;28;11598;-66
2023/03/12 08:26:29;;;;;;;;;35.25;32.00;;;;;4.04;84.07;100634.44;5040658;28;11561;-66
2023/03/12 08:28:56;;;;;;;;;21.00;21.00;;;;;4.06;84.23;100627.97;5039939;28;11635;-68
2023/03/12 08:31:22;;;;;;;;;21.50;18.75;;;;;4.13;84.35;100626.34;5034944;28;11678;-66
2023/03/12 08:33:49;;;;;;;;;21.25;17.75;;;;;4.20;84.74;100630.03;5040618;28;11682;-66
2023/03/12 08:36:15;;;;;;;;;30.00;24.00;;;;;4.22;83.82;100621.91;5048537;28;11639;-65
2023/03/12 08:38:42;;;;;;;;;73.00;55.50;;;;;4.24;84.32;100629.72;5049252;28;11565;-65
2023/03/12 08:41:09;;;;;;;;;44.75;40.25;;;;;4.25;84.32;100629.56;5049630;28;12561;-66
2023/03/12 08:43:35;;;;;;;;;31.25;29.00;;;;;4.24;84.10;100625.22;5048238;28;11555;-66
2023/03/12 08:46:02;;;;;;;;;30.00;26.25;;;;;4.27;84.51;100624.91;5049920;28;11569;-66
2023/03/12 08:48:30;;;;;;;;;33.75;32.50;;;;;4.32;84.36;100630.59;5049392;28;11566;-66
2023/03/12 08:50:58;;;;;;;;;38.50;32.00;;;;;4.37;84.69;100616.78;5045180;28;11554;-67
2023/03/12 08:53:25;;;;;;;;;25.50;21.75;;;;;4.41;85.07;100628.81;5044379;28;11564;-67
2023/03/12 08:55:53;;;;;;;;;53.75;41.50;;;;;4.47;85.03;100649.50;5040920;28;11554;-65
2023/03/12 08:58:20;;;;;;;;;31.50;26.25;;;;;4.46;85.15;100630.00;5047945;28;11081;-66
2023/03/12 09:00:47;;;;;;;;;36.75;34.00;;;;;4.49;85.23;100633.34;5045279;28;11675;-64
2023/03/12 09:03:13;;;;;;;;;29.25;27.50;;;;;4.55;85.46;100646.03;5041195;28;11725;-67
2023/03/12 09:05:41;;;;;;;;;34.25;26.00;;;;;4.59;85.47;100640.22;5038942;28;11694;-64
2023/03/12 09:08:08;;;;;;;;;50.75;43.00;;;;;4.56;84.92;100647.72;5039168;28;11606;-66
2023/03/12 09:10:37;;;;;;;;;36.50;28.50;;;;;4.57;85.67;100628.88;5051728;28;11654;-65
2023/03/12 09:13:04;;;;;;;;;38.00;32.50;;;;;4.63;85.88;100630.09;5048552;28;11564;-64
2023/03/12 09:15:31;;;;;;;;;41.50;36.00;;;;;4.64;85.53;100632.56;5047475;28;11621;-65
2023/03/12 09:17:58;;;;;;;;;32.75;27.75;;;;;4.71;86.17;100627.44;5032846;28;11601;-66
2023/03/12 09:20:24;;;;;;;;;28.00;27.25;;;;;4.75;85.84;100625.28;5034934;28;11682;-64
2023/03/12 09:22:51;;;;;;;;;23.25;20.00;;;;;4.85;86.20;100629.47;5047351;28;11552;-64
2023/03/12 09:25:18;;;;;;;;;32.75;30.25;;;;;4.87;85.92;100627.50;5030972;28;11554;-66
2023/03/12 09:27:46;;;;;;;;;24.25;21.25;;;;;4.97;86.24;100625.50;5034514;28;11604;-66
2023/03/12 09:30:18;;;;;;;;;30.00;28.25;;;;;5.01;86.13;100628.69;5046559;28;11536;-65
2023/03/12 09:32:45;;;;;;;;;26.25;24.00;;;;;5.07;85.79;100627.22;5045119;28;12309;-64
2023/03/12 09:35:14;;;;;;;;;26.25;22.00;;;;;5.13;85.89;100645.22;5046825;28;11575;-65
2023/03/12 09:37:41;;;;;;;;;27.25;26.75;;;;;5.20;86.07;100638.25;5043822;28;11537;-65
2023/03/12 09:40:16;;;;;;;;;35.50;30.75;;;;;5.25;85.95;100645.75;5040087;28;11597;-65
2023/03/12 09:42:50;;;;;;;;;26.50;25.00;;;;;5.29;85.93;100639.91;5047617;28;12435;-65
2023/03/12 09:45:22;;;;;;;;;32.25;28.00;;;;;5.33;86.21;100641.25;5047597;28;11712;-65
2023/03/12 09:47:52;;;;;;;;;29.50;26.50;;;;;5.39;86.78;100648.63;5051892;28;11564;-66
2023/03/12 09:50:22;;;;;;;;;30.50;26.50;;;;;5.49;87.72;100637.75;5046218;28;11570;-65
2023/03/12 09:53:17;;;;;;;;;25.00;20.25;;;;;5.60;87.71;100647.28;5040490;28;11547;-64
2023/03/12 09:55:47;;;;;;;;;27.25;20.75;;;;;5.69;87.54;100640.94;5040231;28;11512;-64
2023/03/12 09:58:25;;;;;;;;;31.75;29.00;;;;;5.80;87.54;100637.94;5045047;28;11600;-65
2023/03/12 10:01:35;;;;;;;;;25.00;22.50;;;;;5.90;87.94;100641.25;5041009;28;11692;-65
2023/03/12 10:04:32;;;;;;;;;26.50;23.50;;;;;5.99;87.64;100636.75;5039835;28;11540;-65
2023/03/12 10:07:14;;;;;;;;;24.50;23.75;;;;;6.04;87.77;100626.41;5042215;28;11584;-68
2023/03/12 10:10:23;;;;;;;;;18.50;17.25;;;;;6.17;88.10;100629.38;5049454;28;11488;-65
2023/03/12 10:13:11;;;;;;;;;25.50;18.75;;;;;6.27;87.68;100626.50;5035143;28;11637;-67
2023/03/12 10:16:06;;;;;;;;;20.25;16.75;;;;;6.37;87.27;100623.66;5061040;28;11506;-65
2023/03/12 10:19:03;;;;;;;;;22.00;19.00;;;;;6.43;87.60;100618.44;5041330;28;11649;-65
2023/03/12 10:21:41;;;;;;;;;23.00;17.25;;;;;6.51;87.60;100624.78;5041687;28;11627;-66
2023/03/12 10:24:17;;;;;;;;;12.25;10.25;;;;;6.61;87.58;100628.91;5048242;28;11480;-68
2023/03/12 10:26:55;;;;;;;;;18.00;14.50;;;;;6.72;88.18;100642.91;5049491;28;11505;-66
2023/03/12 10:29:27;;;;;;;;;16.25;15.00;;;;;6.83;88.03;100634.50;5047657;28;11531;-69
2023/03/12 10:32:06;;;;;;;;;24.00;21.25;;;;;6.94;88.81;100634.94;5048651;28;11602;-68
2023/03/12 10:34:51;;;;;;;;;14.50;11.00;;;;;7.02;88.60;100633.22;5043073;28;11491;-69
2023/03/12 10:37:28;;;;;;;;;9.00;8.50;;;;;7.14;89.35;100637.16;5043761;28;11476;-66
2023/03/12 10:39:56;;;;;;;;;14.00;9.00;;;;;7.26;88.96;100633.06;5043168;28;11041;-67
2023/03/12 10:42:24;;;;;;;;;13.75;10.00;;;;;7.29;88.28;100635.41;5031565;28;11159;-67
2023/03/12 10:45:12;;;;;;;;;7.75;6.75;;;;;7.26;88.11;100635.75;5032500;28;11069;-68
2023/03/12 10:47:41;;;;;;;;;10.50;7.50;;;;;7.29;88.86;100640.75;5045056;28;11001;-68
2023/03/12 10:50:23;;;;;;;;;8.75;8.25;;;;;7.29;88.89;100654.16;5047378;28;11637;-66
2023/03/12 10:52:53;;;;;;;;;17.50;12.25;;;;;7.31;88.60;100646.75;5048846;28;10998;-65
2023/03/12 10:55:23;;;;;;;;;10.50;9.00;;;;;7.33;89.42;100650.09;5042128;28;11263;-64
2023/03/12 10:57:50;;;;;;;;;12.00;10.50;;;;;7.32;88.65;100653.75;5050650;28;11085;-66
2023/03/12 11:00:22;;;;;;;;;8.33;5.67;;;;;7.36;88.99;100657.75;5031852;28;11102;-64
2023/03/12 11:03:05;;;;;;;;;9.75;8.00;;;;;7.43;89.11;100660.56;5045749;28;10984;-65
2023/03/12 11:05:50;;;;;;;;;5.50;5.00;;;;;7.49;89.16;100665.19;5061985;28;11049;-66
2023/03/12 11:08:22;;;;;;;;;11.25;8.25;;;;;7.52;88.79;100672.06;5045398;28;10954;-65
2023/03/12 11:10:49;;;;;;;;;7.00;7.00;;;;;7.53;88.63;100679.06;5048771;28;10758;-65
2023/03/12 11:13:38;;;;;;;;;4.25;2.00;;;;;7.59;87.93;100675.69;5040385;28;10969;-66
2023/03/12 11:16:16;;;;;;;;;5.00;5.00;;;;;7.58;87.84;100679.38;5039383;28;10776;-63
2023/03/12 11:19:03;;;;;;;;;11.25;7.75;;;;;7.63;88.08;100674.31;5036634;28;10850;-65
2023/03/12 11:21:37;;;;;;;;;13.00;6.00;;;;;7.66;87.60;100674.81;5037148;28;10994;-64
2023/03/12 11:24:10;;;;;;;;;7.25;7.00;;;;;7.65;88.09;100672.28;5043126;28;11118;-67
2023/03/12 11:26:53;;;;;;;;;11.25;5.00;;;;;7.69;87.92;100678.94;5051278;28;11049;-65
2023/03/12 11:29:42;;;;;;;;;17.25;11.00;;;;;7.70;87.54;100675.28;5038257;28;10918;-63
2023/03/12 11:32:28;;;;;;;;;5.25;5.25;;;;;7.83;87.83;100671.97;5041073;28;11783;-64